sensor_id;sensor_type;location;lat;lon;timestamp;P1;P2;P0
51258;PMS7003;37327;54.254;18.504;2022-09-12T00:04:24;0;0;0
51258;PMS7003;37327;54.254;18.504;2022-09-12T00:07:29;0;0;0
51258;PMS7003;37327;54.254;18.504;2022-09-12T00:11:02;1;0;0
51258;PMS7003;37327;54.254;18.504;2022-09-12T00:14:09;0;0;0
51258;PMS7003;37327;54.254;18.504;2022-09-12T00:17:16;0;0;0
51258;PMS7003;37327;54.254;18.504;2022-09-12T00:20:22;0;0;0
51258;PMS7003;37327;54.254;18.504;2022-09-12T00:23:33;0;0;0
51258;PMS7003;37327;54.254;18.504;2022-09-12T00:26:38;0;0;0
51258;PMS7003;37327;54.254;18.504;2022-09-12T00:29:46;0;0;0
51258;PMS7003;37327;54.254;18.504;2022-09-12T00:33:16;1;0;0
51258;PMS7003;37327;54.254;18.504;2022-09-12T00:36:30;0;0;0
51258;PMS7003;37327;54.254;18.504;2022-09-12T00:39:43;0;0;0
51258;PMS7003;37327;54.254;18.504;2022-09-12T00:42:47;0;0;0
51258;PMS7003;37327;54.254;18.504;2022-09-12T00:45:51;0;0;0
51258;PMS7003;37327;54.254;18.504;2022-09-12T00:55:30;0;0;0
51258;PMS7003;37327;54.254;18.504;2022-09-12T00:58:51;0;0;0
51258;PMS7003;37327;54.254;18.504;2022-09-12T01:02:03;0;0;0
51258;PMS7003;37327;54.254;18.504;2022-09-12T01:08:22;0;0;0
51258;PMS7003;37327;54.254;18.504;2022-09-12T01:14:42;0;0;0
51258;PMS7003;37327;54.254;18.504;2022-09-12T01:18:17;0;0;0
51258;PMS7003;37327;54.254;18.504;2022-09-12T01:21:37;0;0;0
51258;PMS7003;37327;54.254;18.504;2022-09-12T01:24:50;0;0;0
51258;PMS7003;37327;54.254;18.504;2022-09-12T01:34:45;0;0;0
51258;PMS7003;37327;54.254;18.504;2022-09-12T01:48:12;0;0;0
51258;PMS7003;37327;54.254;18.504;2022-09-12T01:51:12;1;0;0
51258;PMS7003;37327;54.254;18.504;2022-09-12T01:54:26;0;0;0
51258;PMS7003;37327;54.254;18.504;2022-09-12T01:57:48;0;0;0
51258;PMS7003;37327;54.254;18.504;2022-09-12T02:01:05;0;0;0
51258;PMS7003;37327;54.254;18.504;2022-09-12T02:04:29;0;0;0
51258;PMS7003;37327;54.254;18.504;2022-09-12T02:07:37;0;0;0
51258;PMS7003;37327;54.254;18.504;2022-09-12T02:10:55;0;0;0
51258;PMS7003;37327;54.254;18.504;2022-09-12T02:14:11;1;0;0
51258;PMS7003;37327;54.254;18.504;2022-09-12T02:17:25;0;0;0
51258;PMS7003;37327;54.254;18.504;2022-09-12T02:20:37;1;0;0
51258;PMS7003;37327;54.254;18.504;2022-09-12T02:23:44;0;0;0
51258;PMS7003;37327;54.254;18.504;2022-09-12T02:27:04;0;0;0
51258;PMS7003;37327;54.254;18.504;2022-09-12T02:30:08;0;0;0
51258;PMS7003;37327;54.254;18.504;2022-09-12T02:39:54;0;0;0
51258;PMS7003;37327;54.254;18.504;2022-09-12T02:43:02;0;0;0
51258;PMS7003;37327;54.254;18.504;2022-09-12T02:46:09;0;0;0
51258;PMS7003;37327;54.254;18.504;2022-09-12T02:49:19;0;0;0
51258;PMS7003;37327;54.254;18.504;2022-09-12T02:52:50;0;0;0
51258;PMS7003;37327;54.254;18.504;2022-09-12T02:56:07;0;0;0
51258;PMS7003;37327;54.254;18.504;2022-09-12T02:59:20;0;0;0
51258;PMS7003;37327;54.254;18.504;2022-09-12T03:05:56;0;0;0
51258;PMS7003;37327;54.254;18.504;2022-09-12T03:25:47;0;0;0
51258;PMS7003;37327;54.254;18.504;2022-09-12T03:29:00;0;0;0
51258;PMS7003;37327;54.254;18.504;2022-09-12T03:32:09;0;0;0
51258;PMS7003;37327;54.254;18.504;2022-09-12T03:35:22;0;0;0
51258;PMS7003;37327;54.254;18.504;2022-09-12T03:38:34;0;0;0
51258;PMS7003;37327;54.254;18.504;2022-09-12T03:42:03;0;0;0
51258;PMS7003;37327;54.254;18.504;2022-09-12T03:45:08;0;0;0
51258;PMS7003;37327;54.254;18.504;2022-09-12T03:48:13;2;0;0
51258;PMS7003;37327;54.254;18.504;2022-09-12T03:51:17;0;0;0
51258;PMS7003;37327;54.254;18.504;2022-09-12T03:57:31;0;0;0
51258;PMS7003;37327;54.254;18.504;2022-09-12T04:00:37;0;0;0
51258;PMS7003;37327;54.254;18.504;2022-09-12T04:03:42;0;0;0
51258;PMS7003;37327;54.254;18.504;2022-09-12T04:06:48;0;0;0
51258;PMS7003;37327;54.254;18.504;2022-09-12T04:10:02;0;0;0
51258;PMS7003;37327;54.254;18.504;2022-09-12T04:16:18;0;0;0
51258;PMS7003;37327;54.254;18.504;2022-09-12T04:19:32;0;0;0
51258;PMS7003;37327;54.254;18.504;2022-09-12T04:22:46;0;0;0
51258;PMS7003;37327;54.254;18.504;2022-09-12T04:26:16;0;0;0
51258;PMS7003;37327;54.254;18.504;2022-09-12T04:29:22;0;0;0
51258;PMS7003;37327;54.254;18.504;2022-09-12T04:32:26;0;0;0
51258;PMS7003;37327;54.254;18.504;2022-09-12T04:35:34;0;0;0
51258;PMS7003;37327;54.254;18.504;2022-09-12T04:38:45;0;0;0
51258;PMS7003;37327;54.254;18.504;2022-09-12T04:41:50;0;0;0
51258;PMS7003;37327;54.254;18.504;2022-09-12T04:44:57;0;0;0
51258;PMS7003;37327;54.254;18.504;2022-09-12T04:48:27;0;0;0
51258;PMS7003;37327;54.254;18.504;2022-09-12T04:51:39;0;0;0
51258;PMS7003;37327;54.254;18.504;2022-09-12T04:54:48;0;0;0
51258;PMS7003;37327;54.254;18.504;2022-09-12T04:57:58;0;0;0
51258;PMS7003;37327;54.254;18.504;2022-09-12T05:01:08;0;0;0
51258;PMS7003;37327;54.254;18.504;2022-09-12T05:04:15;0;0;0
51258;PMS7003;37327;54.254;18.504;2022-09-12T05:07:25;0;0;0
51258;PMS7003;37327;54.254;18.504;2022-09-12T05:10:35;0;0;0
51258;PMS7003;37327;54.254;18.504;2022-09-12T05:14:05;0;0;0
51258;PMS7003;37327;54.254;18.504;2022-09-12T05:17:11;0;0;0
51258;PMS7003;37327;54.254;18.504;2022-09-12T05:20:23;0;0;0
51258;PMS7003;37327;54.254;18.504;2022-09-12T05:23:34;0;0;0
51258;PMS7003;37327;54.254;18.504;2022-09-12T05:26:45;0;0;0
51258;PMS7003;37327;54.254;18.504;2022-09-12T05:29:55;0;0;0
51258;PMS7003;37327;54.254;18.504;2022-09-12T05:33:24;0;0;0
51258;PMS7003;37327;54.254;18.504;2022-09-12T05:36:29;0;0;0
51258;PMS7003;37327;54.254;18.504;2022-09-12T05:39:34;0;0;0
51258;PMS7003;37327;54.254;18.504;2022-09-12T05:42:39;0;0;0
51258;PMS7003;37327;54.254;18.504;2022-09-12T05:45:50;0;0;0
51258;PMS7003;37327;54.254;18.504;2022-09-12T05:48:56;0;0;0
51258;PMS7003;37327;54.254;18.504;2022-09-12T05:52:10;0;0;0
51258;PMS7003;37327;54.254;18.504;2022-09-12T05:55:20;0;0;0
51258;PMS7003;37327;54.254;18.504;2022-09-12T05:58:28;0;0;0
51258;PMS7003;37327;54.254;18.504;2022-09-12T06:01:46;0;0;0
51258;PMS7003;37327;54.254;18.504;2022-09-12T06:04:53;0;0;0
51258;PMS7003;37327;54.254;18.504;2022-09-12T06:08:04;0;0;0
51258;PMS7003;37327;54.254;18.504;2022-09-12T06:11:23;0;0;0
51258;PMS7003;37327;54.254;18.504;2022-09-12T06:14:29;0;0;0
51258;PMS7003;37327;54.254;18.504;2022-09-12T06:17:35;0;0;0
51258;PMS7003;37327;54.254;18.504;2022-09-12T06:21:05;0;0;0
51258;PMS7003;37327;54.254;18.504;2022-09-12T06:24:14;0;0;0
51258;PMS7003;37327;54.254;18.504;2022-09-12T06:27:19;0;0;0
51258;PMS7003;37327;54.254;18.504;2022-09-12T06:30:26;0;0;0
51258;PMS7003;37327;54.254;18.504;2022-09-12T06:33:32;0;0;0
51258;PMS7003;37327;54.254;18.504;2022-09-12T06:36:39;0;0;0
51258;PMS7003;37327;54.254;18.504;2022-09-12T06:39:44;0;0;0
51258;PMS7003;37327;54.254;18.504;2022-09-12T06:42:50;0;0;0
51258;PMS7003;37327;54.254;18.504;2022-09-12T06:46:20;0;0;0
51258;PMS7003;37327;54.254;18.504;2022-09-12T06:49:24;0;0;0
51258;PMS7003;37327;54.254;18.504;2022-09-12T06:52:31;0;0;0
51258;PMS7003;37327;54.254;18.504;2022-09-12T06:55:35;0;0;0
51258;PMS7003;37327;54.254;18.504;2022-09-12T07:13:13;0;0;0
51258;PMS7003;37327;54.254;18.504;2022-09-12T07:16:36;0;0;0
51258;PMS7003;37327;54.254;18.504;2022-09-12T07:19:44;0;0;0
51258;PMS7003;37327;54.254;18.504;2022-09-12T07:23:01;0;0;0
51258;PMS7003;37327;54.254;18.504;2022-09-12T07:26:21;0;0;0
51258;PMS7003;37327;54.254;18.504;2022-09-12T07:29:38;0;0;0
51258;PMS7003;37327;54.254;18.504;2022-09-12T07:33:07;0;0;0
51258;PMS7003;37327;54.254;18.504;2022-09-12T07:36:21;0;0;0
51258;PMS7003;37327;54.254;18.504;2022-09-12T07:39:33;0;0;0
51258;PMS7003;37327;54.254;18.504;2022-09-12T07:42:38;0;0;0
51258;PMS7003;37327;54.254;18.504;2022-09-12T07:45:46;0;0;0
51258;PMS7003;37327;54.254;18.504;2022-09-12T07:48:51;0;0;0
51258;PMS7003;37327;54.254;18.504;2022-09-12T07:51:56;2;2;2
51258;PMS7003;37327;54.254;18.504;2022-09-12T07:55:26;0;0;0
51258;PMS7003;37327;54.254;18.504;2022-09-12T07:58:30;0;0;0
51258;PMS7003;37327;54.254;18.504;2022-09-12T08:01:40;0;0;0
51258;PMS7003;37327;54.254;18.504;2022-09-12T08:04:45;0;0;0
51258;PMS7003;37327;54.254;18.504;2022-09-12T08:07:58;0;0;0
51258;PMS7003;37327;54.254;18.504;2022-09-12T08:11:10;0;0;0
51258;PMS7003;37327;54.254;18.504;2022-09-12T08:14:17;0;0;0
51258;PMS7003;37327;54.254;18.504;2022-09-12T08:17:47;0;0;0
51258;PMS7003;37327;54.254;18.504;2022-09-12T08:21:02;0;0;0
51258;PMS7003;37327;54.254;18.504;2022-09-12T08:24:17;0;0;0
51258;PMS7003;37327;54.254;18.504;2022-09-12T08:27:26;0;0;0
51258;PMS7003;37327;54.254;18.504;2022-09-12T08:30:36;0;0;0
51258;PMS7003;37327;54.254;18.504;2022-09-12T08:33:47;0;0;0
51258;PMS7003;37327;54.254;18.504;2022-09-12T08:37:02;0;0;0
51258;PMS7003;37327;54.254;18.504;2022-09-12T08:40:15;0;0;0
51258;PMS7003;37327;54.254;18.504;2022-09-12T08:53:13;0;0;0
51258;PMS7003;37327;54.254;18.504;2022-09-12T08:56:23;0;0;0
51258;PMS7003;37327;54.254;18.504;2022-09-12T08:59:36;0;0;0
51258;PMS7003;37327;54.254;18.504;2022-09-12T09:06:09;0;0;0
51258;PMS7003;37327;54.254;18.504;2022-09-12T09:19:37;0;0;0
51258;PMS7003;37327;54.254;18.504;2022-09-12T09:22:53;0;0;0
51258;PMS7003;37327;54.254;18.504;2022-09-12T09:26:05;0;0;0
51258;PMS7003;37327;54.254;18.504;2022-09-12T09:29:18;0;0;0
51258;PMS7003;37327;54.254;18.504;2022-09-12T09:32:32;0;0;0
51258;PMS7003;37327;54.254;18.504;2022-09-12T09:44:43;1;1;1
51258;PMS7003;37327;54.254;18.504;2022-09-12T09:47:52;1;1;1
51258;PMS7003;37327;54.254;18.504;2022-09-12T09:51:03;1;1;0
51258;PMS7003;37327;54.254;18.504;2022-09-12T10:00:49;0;0;0
51258;PMS7003;37327;54.254;18.504;2022-09-12T10:03:58;0;0;0
51258;PMS7003;37327;54.254;18.504;2022-09-12T10:07:03;0;0;0
51258;PMS7003;37327;54.254;18.504;2022-09-12T10:10:33;1;0;0
51258;PMS7003;37327;54.254;18.504;2022-09-12T10:13:39;1;1;1
51258;PMS7003;37327;54.254;18.504;2022-09-12T10:16:52;1;1;0
51258;PMS7003;37327;54.254;18.504;2022-09-12T10:20:05;4;2;2
51258;PMS7003;37327;54.254;18.504;2022-09-12T10:26:37;1;1;1
51258;PMS7003;37327;54.254;18.504;2022-09-12T10:33:05;0;0;0
51258;PMS7003;37327;54.254;18.504;2022-09-12T10:36:14;0;0;0
51258;PMS7003;37327;54.254;18.504;2022-09-12T10:39:20;0;0;0
51258;PMS7003;37327;54.254;18.504;2022-09-12T10:42:50;0;0;0
51258;PMS7003;37327;54.254;18.504;2022-09-12T10:49:29;0;0;0
51258;PMS7003;37327;54.254;18.504;2022-09-12T10:52:42;0;0;0
51258;PMS7003;37327;54.254;18.504;2022-09-12T10:55:58;0;0;0
51258;PMS7003;37327;54.254;18.504;2022-09-12T11:02:27;0;0;0
51258;PMS7003;37327;54.254;18.504;2022-09-12T11:28:34;0;0;0
51258;PMS7003;37327;54.254;18.504;2022-09-12T11:35:05;0;0;0
51258;PMS7003;37327;54.254;18.504;2022-09-12T11:41:33;0;0;0
51258;PMS7003;37327;54.254;18.504;2022-09-12T11:44:48;0;0;0
51258;PMS7003;37327;54.254;18.504;2022-09-12T11:48:16;0;0;0
51258;PMS7003;37327;54.254;18.504;2022-09-12T11:51:36;0;0;0
51258;PMS7003;37327;54.254;18.504;2022-09-12T12:06:56;0;0;0
51258;PMS7003;37327;54.254;18.504;2022-09-12T12:16:58;0;0;0
51258;PMS7003;37327;54.254;18.504;2022-09-12T12:20:18;0;0;0
51258;PMS7003;37327;54.254;18.504;2022-09-12T12:23:30;0;0;0
51258;PMS7003;37327;54.254;18.504;2022-09-12T12:27:21;0;0;0
51258;PMS7003;37327;54.254;18.504;2022-09-12T12:30:00;0;0;0
51258;PMS7003;37327;54.254;18.504;2022-09-12T12:42:59;0;0;0
51258;PMS7003;37327;54.254;18.504;2022-09-12T12:46:22;0;0;0
51258;PMS7003;37327;54.254;18.504;2022-09-12T12:49:38;0;0;0
51258;PMS7003;37327;54.254;18.504;2022-09-12T13:09:47;0;0;0
51258;PMS7003;37327;54.254;18.504;2022-09-12T13:12:59;0;0;0
51258;PMS7003;37327;54.254;18.504;2022-09-12T13:16:08;0;0;0
51258;PMS7003;37327;54.254;18.504;2022-09-12T13:19:16;0;0;0
51258;PMS7003;37327;54.254;18.504;2022-09-12T13:22:41;0;0;0
51258;PMS7003;37327;54.254;18.504;2022-09-12T13:25:56;0;0;0
51258;PMS7003;37327;54.254;18.504;2022-09-12T13:32:21;0;0;0
51258;PMS7003;37327;54.254;18.504;2022-09-12T13:48:50;0;0;0
51258;PMS7003;37327;54.254;18.504;2022-09-12T13:52:24;0;0;0
51258;PMS7003;37327;54.254;18.504;2022-09-12T13:55:40;0;0;0
51258;PMS7003;37327;54.254;18.504;2022-09-12T13:58:58;0;0;0
51258;PMS7003;37327;54.254;18.504;2022-09-12T14:05:24;0;0;0
51258;PMS7003;37327;54.254;18.504;2022-09-12T14:08:37;0;0;0
51258;PMS7003;37327;54.254;18.504;2022-09-12T14:11:47;0;0;0
51258;PMS7003;37327;54.254;18.504;2022-09-12T14:14:58;0;0;0
51258;PMS7003;37327;54.254;18.504;2022-09-12T14:18:18;0;0;0
51258;PMS7003;37327;54.254;18.504;2022-09-12T14:21:30;0;0;0
51258;PMS7003;37327;54.254;18.504;2022-09-12T14:24:50;0;0;0
51258;PMS7003;37327;54.254;18.504;2022-09-12T14:27:55;0;0;0
51258;PMS7003;37327;54.254;18.504;2022-09-12T14:31:04;0;0;0
51258;PMS7003;37327;54.254;18.504;2022-09-12T14:34:15;0;0;0
51258;PMS7003;37327;54.254;18.504;2022-09-12T14:37:21;0;0;0
51258;PMS7003;37327;54.254;18.504;2022-09-12T14:40:29;0;0;0
51258;PMS7003;37327;54.254;18.504;2022-09-12T14:43:50;0;0;0
51258;PMS7003;37327;54.254;18.504;2022-09-12T14:47:00;0;0;0
51258;PMS7003;37327;54.254;18.504;2022-09-12T14:50:16;0;0;0
51258;PMS7003;37327;54.254;18.504;2022-09-12T14:53:25;0;0;0
51258;PMS7003;37327;54.254;18.504;2022-09-12T14:56:39;0;0;0
51258;PMS7003;37327;54.254;18.504;2022-09-12T15:00:03;0;0;0
51258;PMS7003;37327;54.254;18.504;2022-09-12T15:06:27;0;0;0
51258;PMS7003;37327;54.254;18.504;2022-09-12T15:09:37;0;0;0
51258;PMS7003;37327;54.254;18.504;2022-09-12T15:13:13;0;0;0
51258;PMS7003;37327;54.254;18.504;2022-09-12T15:16:22;0;0;0
51258;PMS7003;37327;54.254;18.504;2022-09-12T15:19:30;0;0;0
51258;PMS7003;37327;54.254;18.504;2022-09-12T15:22:35;0;0;0
51258;PMS7003;37327;54.254;18.504;2022-09-12T15:25:40;0;0;0
51258;PMS7003;37327;54.254;18.504;2022-09-12T15:28:45;1;1;1
51258;PMS7003;37327;54.254;18.504;2022-09-12T15:32:21;1;0;0
51258;PMS7003;37327;54.254;18.504;2022-09-12T15:35:33;0;0;0
51258;PMS7003;37327;54.254;18.504;2022-09-12T15:38:38;0;0;0
51258;PMS7003;37327;54.254;18.504;2022-09-12T15:41:42;0;0;0
51258;PMS7003;37327;54.254;18.504;2022-09-12T15:44:46;0;0;0
51258;PMS7003;37327;54.254;18.504;2022-09-12T15:47:50;0;0;0
51258;PMS7003;37327;54.254;18.504;2022-09-12T15:50:54;0;0;0
51258;PMS7003;37327;54.254;18.504;2022-09-12T15:54:31;0;0;0
51258;PMS7003;37327;54.254;18.504;2022-09-12T16:00:53;0;0;0
51258;PMS7003;37327;54.254;18.504;2022-09-12T16:03:57;0;0;0
51258;PMS7003;37327;54.254;18.504;2022-09-12T16:07:07;0;0;0
51258;PMS7003;37327;54.254;18.504;2022-09-12T16:10:15;0;0;0
51258;PMS7003;37327;54.254;18.504;2022-09-12T16:13:22;0;0;0
51258;PMS7003;37327;54.254;18.504;2022-09-12T16:16:27;0;0;0
51258;PMS7003;37327;54.254;18.504;2022-09-12T16:19:56;0;0;0
51258;PMS7003;37327;54.254;18.504;2022-09-12T16:23:00;2;0;0
51258;PMS7003;37327;54.254;18.504;2022-09-12T16:26:05;1;1;0
51258;PMS7003;37327;54.254;18.504;2022-09-12T16:29:10;1;0;0
51258;PMS7003;37327;54.254;18.504;2022-09-12T16:32:16;0;0;0
51258;PMS7003;37327;54.254;18.504;2022-09-12T16:35:21;0;0;0
51258;PMS7003;37327;54.254;18.504;2022-09-12T16:38:25;0;0;0
51258;PMS7003;37327;54.254;18.504;2022-09-12T16:41:29;0;0;0
51258;PMS7003;37327;54.254;18.504;2022-09-12T16:44:33;0;0;0
51258;PMS7003;37327;54.254;18.504;2022-09-12T16:48:02;0;0;0
51258;PMS7003;37327;54.254;18.504;2022-09-12T16:51:07;0;0;0
51258;PMS7003;37327;54.254;18.504;2022-09-12T16:54:12;0;0;0
51258;PMS7003;37327;54.254;18.504;2022-09-12T16:57:18;0;0;0
51258;PMS7003;37327;54.254;18.504;2022-09-12T17:00:22;0;0;0
51258;PMS7003;37327;54.254;18.504;2022-09-12T17:03:27;0;0;0
51258;PMS7003;37327;54.254;18.504;2022-09-12T17:10:09;0;0;0
51258;PMS7003;37327;54.254;18.504;2022-09-12T17:13:13;0;0;0
51258;PMS7003;37327;54.254;18.504;2022-09-12T17:16:17;0;0;0
51258;PMS7003;37327;54.254;18.504;2022-09-12T17:19:27;0;0;0
51258;PMS7003;37327;54.254;18.504;2022-09-12T17:22:34;0;0;0
51258;PMS7003;37327;54.254;18.504;2022-09-12T17:25:40;0;0;0
51258;PMS7003;37327;54.254;18.504;2022-09-12T17:28:57;0;0;0
51258;PMS7003;37327;54.254;18.504;2022-09-12T17:32:26;0;0;0
51258;PMS7003;37327;54.254;18.504;2022-09-12T17:35:33;0;0;0
51258;PMS7003;37327;54.254;18.504;2022-09-12T17:38:39;1;0;0
51258;PMS7003;37327;54.254;18.504;2022-09-12T17:41:43;0;0;0
51258;PMS7003;37327;54.254;18.504;2022-09-12T17:44:48;0;0;0
51258;PMS7003;37327;54.254;18.504;2022-09-12T17:47:53;2;1;1
51258;PMS7003;37327;54.254;18.504;2022-09-12T17:50:57;1;1;0
51258;PMS7003;37327;54.254;18.504;2022-09-12T17:54:03;1;1;1
51258;PMS7003;37327;54.254;18.504;2022-09-12T17:57:35;1;1;1
51258;PMS7003;37327;54.254;18.504;2022-09-12T18:00:40;1;0;0
51258;PMS7003;37327;54.254;18.504;2022-09-12T18:03:56;1;1;1
51258;PMS7003;37327;54.254;18.504;2022-09-12T18:07:05;0;0;0
51258;PMS7003;37327;54.254;18.504;2022-09-12T18:10:11;1;1;1
51258;PMS7003;37327;54.254;18.504;2022-09-12T18:13:15;1;1;1
51258;PMS7003;37327;54.254;18.504;2022-09-12T18:16:45;3;2;2
51258;PMS7003;37327;54.254;18.504;2022-09-12T18:19:51;2;2;2
51258;PMS7003;37327;54.254;18.504;2022-09-12T18:22:57;3;3;3
51258;PMS7003;37327;54.254;18.504;2022-09-12T18:26:03;3;3;2
51258;PMS7003;37327;54.254;18.504;2022-09-12T18:29:11;2;2;2
51258;PMS7003;37327;54.254;18.504;2022-09-12T18:32:19;3;3;3
51258;PMS7003;37327;54.254;18.504;2022-09-12T18:35:23;3;3;3
51258;PMS7003;37327;54.254;18.504;2022-09-12T18:38:53;4;4;3
51258;PMS7003;37327;54.254;18.504;2022-09-12T18:41:57;4;3;3
51258;PMS7003;37327;54.254;18.504;2022-09-12T18:48:14;6;5;4
51258;PMS7003;37327;54.254;18.504;2022-09-12T18:51:19;6;5;5
51258;PMS7003;37327;54.254;18.504;2022-09-12T18:54:24;9;7;6
51258;PMS7003;37327;54.254;18.504;2022-09-12T18:57:29;4;4;4
51258;PMS7003;37327;54.254;18.504;2022-09-12T19:00:38;5;3;3
51258;PMS7003;37327;54.254;18.504;2022-09-12T19:03:43;6;4;4
51258;PMS7003;37327;54.254;18.504;2022-09-12T19:07:13;4;3;2
51258;PMS7003;37327;54.254;18.504;2022-09-12T19:10:19;5;4;4
51258;PMS7003;37327;54.254;18.504;2022-09-12T19:13:23;5;3;2
51258;PMS7003;37327;54.254;18.504;2022-09-12T19:16:33;4;4;4
51258;PMS7003;37327;54.254;18.504;2022-09-12T19:19:41;5;4;4
51258;PMS7003;37327;54.254;18.504;2022-09-12T19:22:45;6;5;5
51258;PMS7003;37327;54.254;18.504;2022-09-12T19:29:06;4;4;4
51258;PMS7003;37327;54.254;18.504;2022-09-12T19:32:36;7;6;5
51258;PMS7003;37327;54.254;18.504;2022-09-12T19:35:40;5;5;4
51258;PMS7003;37327;54.254;18.504;2022-09-12T19:38:45;10;10;9
51258;PMS7003;37327;54.254;18.504;2022-09-12T19:41:49;8;7;6
51258;PMS7003;37327;54.254;18.504;2022-09-12T19:44:53;7;7;5
51258;PMS7003;37327;54.254;18.504;2022-09-12T19:47:58;6;5;5
51258;PMS7003;37327;54.254;18.504;2022-09-12T19:51:18;6;4;4
51258;PMS7003;37327;54.254;18.504;2022-09-12T19:54:26;3;3;3
51258;PMS7003;37327;54.254;18.504;2022-09-12T19:57:55;5;5;4
51258;PMS7003;37327;54.254;18.504;2022-09-12T20:04:13;4;4;4
51258;PMS7003;37327;54.254;18.504;2022-09-12T20:07:17;5;5;4
51258;PMS7003;37327;54.254;18.504;2022-09-12T20:10:32;4;4;3
51258;PMS7003;37327;54.254;18.504;2022-09-12T20:13:37;3;3;3
51258;PMS7003;37327;54.254;18.504;2022-09-12T20:17:07;4;3;2
51258;PMS7003;37327;54.254;18.504;2022-09-12T20:20:12;3;2;2
51258;PMS7003;37327;54.254;18.504;2022-09-12T20:23:16;4;3;3
51258;PMS7003;37327;54.254;18.504;2022-09-12T20:26:20;4;3;3
51258;PMS7003;37327;54.254;18.504;2022-09-12T20:29:28;3;3;3
51258;PMS7003;37327;54.254;18.504;2022-09-12T20:32:36;2;2;1
51258;PMS7003;37327;54.254;18.504;2022-09-12T20:36:11;2;2;2
51258;PMS7003;37327;54.254;18.504;2022-09-12T20:39:18;4;2;2
51258;PMS7003;37327;54.254;18.504;2022-09-12T20:42:24;3;2;2
51258;PMS7003;37327;54.254;18.504;2022-09-12T20:45:54;2;2;2
51258;PMS7003;37327;54.254;18.504;2022-09-12T20:49:00;2;2;2
51258;PMS7003;37327;54.254;18.504;2022-09-12T20:52:05;4;1;1
51258;PMS7003;37327;54.254;18.504;2022-09-12T20:55:11;3;3;3
51258;PMS7003;37327;54.254;18.504;2022-09-12T20:58:16;3;3;2
51258;PMS7003;37327;54.254;18.504;2022-09-12T21:01:22;2;2;2
51258;PMS7003;37327;54.254;18.504;2022-09-12T21:04:29;3;3;3
51258;PMS7003;37327;54.254;18.504;2022-09-12T21:07:35;1;1;1
51258;PMS7003;37327;54.254;18.504;2022-09-12T21:10:43;4;2;2
51258;PMS7003;37327;54.254;18.504;2022-09-12T21:13:52;3;3;3
51258;PMS7003;37327;54.254;18.504;2022-09-12T21:16:59;1;1;1
51258;PMS7003;37327;54.254;18.504;2022-09-12T21:20:28;3;2;2
51258;PMS7003;37327;54.254;18.504;2022-09-12T21:23:33;2;2;2
51258;PMS7003;37327;54.254;18.504;2022-09-12T21:26:37;2;2;1
51258;PMS7003;37327;54.254;18.504;2022-09-12T21:29:42;2;2;2
51258;PMS7003;37327;54.254;18.504;2022-09-12T21:36:02;4;4;4
51258;PMS7003;37327;54.254;18.504;2022-09-12T21:39:17;2;2;2
51258;PMS7003;37327;54.254;18.504;2022-09-12T21:42:27;2;2;1
51258;PMS7003;37327;54.254;18.504;2022-09-12T21:45:34;1;1;1
51258;PMS7003;37327;54.254;18.504;2022-09-12T21:49:03;2;1;1
51258;PMS7003;37327;54.254;18.504;2022-09-12T21:52:10;1;1;1
51258;PMS7003;37327;54.254;18.504;2022-09-12T21:55:15;2;2;1
51258;PMS7003;37327;54.254;18.504;2022-09-12T21:58:25;2;2;2
51258;PMS7003;37327;54.254;18.504;2022-09-12T22:01:30;2;2;2
51258;PMS7003;37327;54.254;18.504;2022-09-12T22:04:34;1;1;1
51258;PMS7003;37327;54.254;18.504;2022-09-12T22:07:45;2;2;2
51258;PMS7003;37327;54.254;18.504;2022-09-12T22:10:52;1;0;0
51258;PMS7003;37327;54.254;18.504;2022-09-12T22:14:00;1;1;1
51258;PMS7003;37327;54.254;18.504;2022-09-12T22:17:12;2;2;2
51258;PMS7003;37327;54.254;18.504;2022-09-12T22:20:22;1;1;1
51258;PMS7003;37327;54.254;18.504;2022-09-12T22:23:32;2;2;2
51258;PMS7003;37327;54.254;18.504;2022-09-12T22:26:51;3;3;2
51258;PMS7003;37327;54.254;18.504;2022-09-12T22:30:05;1;1;1
51258;PMS7003;37327;54.254;18.504;2022-09-12T22:33:13;1;1;1
51258;PMS7003;37327;54.254;18.504;2022-09-12T22:36:42;0;0;0
51258;PMS7003;37327;54.254;18.504;2022-09-12T22:39:52;1;1;1
51258;PMS7003;37327;54.254;18.504;2022-09-12T22:42:56;2;2;2
51258;PMS7003;37327;54.254;18.504;2022-09-12T22:46:03;1;0;0
51258;PMS7003;37327;54.254;18.504;2022-09-12T22:49:09;2;1;1
51258;PMS7003;37327;54.254;18.504;2022-09-12T22:52:14;4;4;4
51258;PMS7003;37327;54.254;18.504;2022-09-12T22:55:19;1;1;1
51258;PMS7003;37327;54.254;18.504;2022-09-12T22:58:48;2;1;1
51258;PMS7003;37327;54.254;18.504;2022-09-12T23:01:53;1;1;0
51258;PMS7003;37327;54.254;18.504;2022-09-12T23:05:00;1;1;1
51258;PMS7003;37327;54.254;18.504;2022-09-12T23:08:08;2;2;2
51258;PMS7003;37327;54.254;18.504;2022-09-12T23:11:18;1;1;1
51258;PMS7003;37327;54.254;18.504;2022-09-12T23:14:23;1;1;1
51258;PMS7003;37327;54.254;18.504;2022-09-12T23:17:27;1;0;0
51258;PMS7003;37327;54.254;18.504;2022-09-12T23:20:59;1;1;0
51258;PMS7003;37327;54.254;18.504;2022-09-12T23:24:06;1;1;1
51258;PMS7003;37327;54.254;18.504;2022-09-12T23:27:11;2;0;0
51258;PMS7003;37327;54.254;18.504;2022-09-12T23:30:20;3;2;2
51258;PMS7003;37327;54.254;18.504;2022-09-12T23:33:26;1;1;1
51258;PMS7003;37327;54.254;18.504;2022-09-12T23:36:35;1;1;1
51258;PMS7003;37327;54.254;18.504;2022-09-12T23:39:43;4;2;2
51258;PMS7003;37327;54.254;18.504;2022-09-12T23:42:52;2;1;1
51258;PMS7003;37327;54.254;18.504;2022-09-12T23:45:57;2;2;2
51258;PMS7003;37327;54.254;18.504;2022-09-12T23:49:04;1;1;1
51258;PMS7003;37327;54.254;18.504;2022-09-12T23:52:19;2;2;1
51258;PMS7003;37327;54.254;18.504;2022-09-12T23:55:49;1;1;1
51258;PMS7003;37327;54.254;18.504;2022-09-12T23:58:54;1;1;1
